Time;durP1;ratioP1;P1;durP2;ratioP2;P2;SDS_P1;SDS_P2;PMS_P1;PMS_P2;Temp;Humidity;BMP_temperature;BMP_pressure;BME280_temperature;BME280_humidity;BME280_pressure;Samples;Min_cycle;Max_cycle;Signal;HPM_P1;HPM_P2
2023/04/15 00:01:24;;;;;;;8.93;7.32;;;6.40;99.90;;;;;;5036254;28;20037;-34
2023/04/15 00:03:52;;;;;;;9.40;7.22;;;6.40;99.90;;;;;;5040230;28;20041;-33
2023/04/15 00:06:18;;;;;;;9.52;6.97;;;6.30;99.90;;;;;;5036038;28;20044;-33
2023/04/15 00:08:44;;;;;;;12.25;7.90;;;6.30;99.90;;;;;;5036433;28;20029;-34
2023/04/15 00:11:11;;;;;;;13.23;8.05;;;6.30;99.90;;;;;;5054774;28;20044;-34
2023/04/15 00:13:37;;;;;;;11.80;7.97;;;6.30;99.90;;;;;;5036163;28;20482;-35
2023/04/15 00:16:03;;;;;;;10.05;7.63;;;6.30;99.90;;;;;;5053828;28;20120;-34
2023/04/15 00:18:30;;;;;;;10.02;7.55;;;6.20;99.90;;;;;;5055843;28;20047;-34
2023/04/15 00:20:56;;;;;;;12.43;9.10;;;6.30;99.90;;;;;;5036532;28;20068;-34
2023/04/15 00:23:22;;;;;;;11.70;8.38;;;6.30;99.90;;;;;;5033636;28;20040;-34
2023/04/15 00:25:48;;;;;;;8.23;7.38;;;6.30;99.90;;;;;;5050677;28;20033;-33
2023/04/15 00:28:13;;;;;;;14.85;8.02;;;6.30;99.90;;;;;;5038601;28;20033;-33
2023/04/15 00:30:39;;;;;;;9.98;7.93;;;6.30;99.90;;;;;;5036081;28;20460;-33
2023/04/15 00:33:05;;;;;;;8.57;7.32;;;6.30;99.90;;;;;;5053713;28;20087;-33
2023/04/15 00:35:35;;;;;;;10.80;8.20;;;6.30;99.90;;;;;;5040046;28;20037;-34
2023/04/15 00:38:01;;;;;;;9.25;7.72;;;6.20;99.90;;;;;;5036703;28;20029;-35
2023/04/15 00:40:27;;;;;;;13.45;8.23;;;6.30;99.90;;;;;;5035810;28;20041;-33
2023/04/15 00:42:53;;;;;;;10.73;7.93;;;6.20;99.90;;;;;;5035734;28;20090;-34
2023/04/15 00:45:19;;;;;;;11.38;7.35;;;6.30;99.90;;;;;;5035719;28;20040;-34
2023/04/15 00:47:45;;;;;;;10.15;7.70;;;6.20;99.90;;;;;;5036124;28;20029;-34
2023/04/15 00:50:11;;;;;;;10.50;8.20;;;6.10;99.90;;;;;;5041118;28;20134;-34
2023/04/15 00:52:38;;;;;;;9.95;8.20;;;6.10;99.90;;;;;;5035877;28;20043;-33
2023/04/15 00:55:05;;;;;;;9.82;7.35;;;6.00;99.90;;;;;;5035906;28;20037;-35
2023/04/15 00:57:32;;;;;;;10.25;7.28;;;6.00;99.90;;;;;;5035298;28;20124;-33
2023/04/15 00:59:58;;;;;;;9.52;7.80;;;5.90;99.90;;;;;;5036198;28;20116;-33
2023/04/15 01:02:23;;;;;;;9.98;7.97;;;5.90;99.90;;;;;;5036040;28;20095;-33
2023/04/15 01:04:49;;;;;;;14.50;8.40;;;5.90;99.90;;;;;;5038289;28;20060;-34
2023/04/15 01:07:16;;;;;;;11.63;8.45;;;5.80;99.90;;;;;;5042830;28;20044;-33
2023/04/15 01:09:42;;;;;;;12.88;9.15;;;5.90;99.90;;;;;;5036283;28;20072;-33
2023/04/15 01:12:11;;;;;;;8.70;7.40;;;5.80;99.90;;;;;;5033615;28;20067;-34
2023/04/15 01:14:36;;;;;;;12.25;8.52;;;5.80;99.90;;;;;;5039681;28;20029;-34
2023/04/15 01:17:02;;;;;;;9.52;7.57;;;5.70;99.90;;;;;;5039223;28;20059;-33
2023/04/15 01:19:28;;;;;;;11.50;7.93;;;5.70;99.90;;;;;;5044646;28;20041;-33
2023/04/15 01:21:55;;;;;;;9.60;7.70;;;5.70;99.90;;;;;;5039589;28;20045;-34
2023/04/15 01:24:22;;;;;;;11.93;7.78;;;5.60;99.90;;;;;;5038894;28;20044;-35
2023/04/15 01:26:49;;;;;;;11.55;8.55;;;5.60;99.90;;;;;;5039404;28;20497;-33
2023/04/15 01:29:15;;;;;;;11.65;7.70;;;5.60;99.90;;;;;;5039299;28;20033;-33
2023/04/15 01:31:51;;;;;;;9.48;8.48;;;5.60;99.90;;;;;;5038952;28;20041;-33
2023/04/15 01:34:18;;;;;;;9.98;8.15;;;5.40;99.90;;;;;;5055194;28;20041;-35
2023/04/15 01:36:44;;;;;;;12.63;7.85;;;5.50;99.90;;;;;;5038846;28;20037;-34
2023/04/15 01:39:10;;;;;;;9.40;7.45;;;5.30;99.90;;;;;;5042703;28;20086;-33
2023/04/15 01:41:35;;;;;;;11.93;7.63;;;5.40;99.90;;;;;;5039425;28;20043;-33
2023/04/15 01:44:01;;;;;;;9.25;6.63;;;5.30;99.90;;;;;;5038771;28;20116;-35
2023/04/15 01:46:27;;;;;;;10.60;7.45;;;5.40;99.90;;;;;;5038295;28;20424;-33
2023/04/15 01:48:53;;;;;;;12.95;7.97;;;5.20;99.90;;;;;;5039324;28;20040;-33
2023/04/15 01:51:18;;;;;;;10.70;8.07;;;5.20;99.90;;;;;;5039497;28;20033;-34
2023/04/15 01:53:44;;;;;;;8.60;7.55;;;5.20;99.90;;;;;;5022422;28;20037;-34
2023/04/15 01:56:10;;;;;;;10.85;7.63;;;5.10;99.90;;;;;;5038949;28;20045;-33
2023/04/15 02:01:04;;;;;;;10.23;7.72;;;5.20;99.90;;;;;;5093848;28;20044;-33
2023/04/15 02:03:30;;;;;;;11.95;8.07;;;5.00;99.90;;;;;;5077919;28;20044;-33
2023/04/15 02:05:56;;;;;;;9.80;8.60;;;5.00;99.90;;;;;;5095573;28;20035;-33
2023/04/15 02:08:22;;;;;;;8.88;7.43;;;4.90;99.90;;;;;;5077788;28;20043;-34
2023/04/15 02:10:48;;;;;;;10.70;7.40;;;4.90;99.90;;;;;;5060558;28;20093;-35
2023/04/15 02:13:14;;;;;;;9.63;7.85;;;4.90;99.90;;;;;;5066874;28;20107;-33
2023/04/15 02:15:39;;;;;;;11.55;8.60;;;4.90;99.90;;;;;;5070332;28;20032;-33
2023/04/15 02:18:06;;;;;;;11.25;7.65;;;4.80;99.90;;;;;;5072699;28;20075;-33
2023/04/15 02:20:32;;;;;;;10.77;7.80;;;4.80;99.90;;;;;;5060958;28;20142;-33
2023/04/15 02:22:57;;;;;;;9.73;8.13;;;4.80;99.90;;;;;;5068846;28;20552;-33
2023/04/15 02:25:23;;;;;;;9.98;7.68;;;4.80;99.90;;;;;;5052502;28;20032;-34
2023/04/15 02:27:49;;;;;;;10.38;8.13;;;4.70;99.90;;;;;;5076884;28;20408;-32
2023/04/15 02:30:15;;;;;;;10.85;7.50;;;4.70;99.90;;;;;;5072443;28;20043;-33
2023/04/15 02:32:43;;;;;;;14.38;9.20;;;4.70;99.90;;;;;;5078154;28;20130;-33
2023/04/15 02:35:09;;;;;;;10.43;8.73;;;4.60;99.90;;;;;;5060164;28;20128;-34
2023/04/15 02:37:42;;;;;;;10.75;8.07;;;4.70;99.90;;;;;;5065527;28;20107;-34
2023/04/15 02:40:10;;;;;;;12.20;8.48;;;4.60;99.90;;;;;;5070408;28;20119;-33
2023/04/15 02:42:40;;;;;;;11.68;9.02;;;4.60;99.90;;;;;;5068845;28;20393;-35
2023/04/15 02:45:06;;;;;;;11.60;9.48;;;4.60;99.90;;;;;;5060031;28;20033;-36
2023/04/15 02:47:33;;;;;;;12.27;9.13;;;4.60;99.90;;;;;;5068110;28;20035;-35
2023/04/15 02:50:00;;;;;;;10.77;8.23;;;4.50;99.90;;;;;;5068483;28;20048;-36
2023/04/15 02:52:27;;;;;;;10.80;8.93;;;4.60;99.90;;;;;;5086885;28;20100;-35
2023/04/15 02:54:59;;;;;;;10.18;9.00;;;4.60;99.90;;;;;;5094052;28;20132;-37
2023/04/15 02:57:27;;;;;;;15.63;10.18;;;4.50;99.90;;;;;;5076419;28;20047;-44
2023/04/15 02:59:53;;;;;;;12.93;9.63;;;4.50;99.90;;;;;;5076627;28;20178;-44
2023/04/15 03:02:19;;;;;;;12.68;9.82;;;4.60;99.90;;;;;;5076855;28;20515;-41
2023/04/15 03:04:44;;;;;;;11.63;9.55;;;4.50;99.90;;;;;;5076821;28;20036;-36
2023/04/15 03:07:10;;;;;;;16.70;9.57;;;4.50;99.90;;;;;;5076243;28;20040;-42
2023/04/15 03:09:38;;;;;;;14.32;10.07;;;4.50;99.90;;;;;;5076644;28;20096;-37
2023/04/15 03:12:04;;;;;;;15.27;9.98;;;4.50;99.90;;;;;;5076515;28;20481;-38
2023/04/15 03:14:30;;;;;;;17.95;11.18;;;4.50;99.90;;;;;;5076444;28;20032;-41
2023/04/15 03:16:58;;;;;;;14.38;10.18;;;4.40;99.90;;;;;;5076139;28;20044;-41
2023/04/15 03:19:23;;;;;;;13.40;11.02;;;4.40;99.90;;;;;;5076291;28;20405;-38
2023/04/15 03:21:49;;;;;;;15.57;10.30;;;4.40;99.90;;;;;;5076321;28;20043;-38
2023/04/15 03:24:15;;;;;;;12.80;10.95;;;4.40;99.90;;;;;;5076206;28;20036;-37
2023/04/15 03:26:41;;;;;;;14.55;10.88;;;4.30;99.90;;;;;;5059350;28;20154;-37
2023/04/15 03:29:06;;;;;;;15.45;11.55;;;4.40;99.90;;;;;;5075803;28;20036;-41
2023/04/15 03:31:32;;;;;;;14.23;11.30;;;4.30;99.90;;;;;;5075442;28;20119;-39
2023/04/15 03:33:58;;;;;;;15.48;10.95;;;4.40;99.90;;;;;;5076338;28;20040;-36
2023/04/15 03:36:24;;;;;;;14.70;11.02;;;4.40;99.90;;;;;;5075385;28;20136;-38
2023/04/15 03:38:50;;;;;;;16.23;12.32;;;4.30;99.90;;;;;;5076058;28;20062;-38
2023/04/15 03:41:16;;;;;;;15.35;12.60;;;4.40;99.90;;;;;;5075498;28;20561;-38
2023/04/15 03:43:42;;;;;;;15.68;11.25;;;4.30;99.90;;;;;;5075840;28;20047;-37
2023/04/15 03:46:07;;;;;;;16.75;12.82;;;4.30;99.90;;;;;;5075286;28;20055;-38
2023/04/15 03:48:33;;;;;;;15.93;11.23;;;4.20;99.90;;;;;;5075899;28;20047;-40
2023/04/15 03:50:59;;;;;;;15.73;12.00;;;4.20;99.90;;;;;;5075540;28;20626;-39
2023/04/15 03:53:25;;;;;;;18.08;11.88;;;4.20;99.90;;;;;;5093645;28;20032;-39
2023/04/15 03:55:51;;;;;;;16.70;12.50;;;4.20;99.90;;;;;;5093455;28;20032;-39
2023/04/15 03:58:17;;;;;;;16.85;11.57;;;4.20;99.90;;;;;;5075465;28;20042;-39
2023/04/15 04:00:43;;;;;;;14.80;10.60;;;4.20;99.90;;;;;;5074955;28;20071;-36
2023/04/15 04:03:09;;;;;;;17.60;12.20;;;4.20;99.90;;;;;;5075566;28;20071;-38
2023/04/15 04:05:37;;;;;;;14.32;11.75;;;4.10;99.90;;;;;;5075571;28;20039;-40
2023/04/15 04:08:03;;;;;;;15.98;11.73;;;4.10;99.90;;;;;;5075492;28;20075;-37
2023/04/15 04:10:29;;;;;;;16.50;11.73;;;4.20;99.90;;;;;;5093441;28;20577;-39
2023/04/15 04:12:55;;;;;;;14.90;11.27;;;4.20;99.90;;;;;;5075292;28;20056;-38
2023/04/15 04:15:21;;;;;;;16.52;12.02;;;4.10;99.90;;;;;;5075498;28;20032;-39
2023/04/15 04:17:47;;;;;;;18.52;11.85;;;4.00;99.90;;;;;;5075437;28;20040;-39
2023/04/15 04:20:13;;;;;;;13.60;10.70;;;4.10;99.90;;;;;;5075521;28;20040;-35
2023/04/15 04:22:39;;;;;;;16.88;11.25;;;4.00;99.90;;;;;;5075198;28;20052;-40
2023/04/15 04:25:07;;;;;;;17.00;11.40;;;4.10;99.90;;;;;;5074952;28;20078;-38
2023/04/15 04:27:33;;;;;;;15.88;11.85;;;3.90;99.90;;;;;;5074543;28;20040;-36
2023/04/15 04:30:00;;;;;;;14.63;10.23;;;3.90;99.90;;;;;;5075139;28;20048;-36
2023/04/15 04:32:26;;;;;;;15.43;11.10;;;4.00;99.90;;;;;;5093214;28;20036;-39
2023/04/15 04:34:52;;;;;;;16.98;11.43;;;4.00;99.90;;;;;;5075113;28;20043;-39
2023/04/15 04:37:17;;;;;;;17.02;12.10;;;3.90;99.90;;;;;;5074914;28;20036;-37
2023/04/15 04:39:43;;;;;;;14.07;11.15;;;3.80;99.90;;;;;;5075327;28;20040;-38
2023/04/15 04:42:09;;;;;;;15.00;11.02;;;3.80;99.90;;;;;;5077198;28;20058;-40
2023/04/15 04:44:35;;;;;;;15.93;11.65;;;3.80;99.90;;;;;;5079100;28;20059;-37
2023/04/15 04:47:00;;;;;;;14.15;10.57;;;3.70;99.90;;;;;;5078967;28;20046;-39
2023/04/15 04:49:26;;;;;;;17.17;12.02;;;3.70;99.90;;;;;;5079163;28;20067;-36
2023/04/15 04:51:52;;;;;;;19.13;10.48;;;3.70;99.90;;;;;;5079044;28;20416;-38
2023/04/15 04:54:18;;;;;;;16.42;11.57;;;3.60;99.90;;;;;;5097060;28;20484;-36
2023/04/15 04:56:43;;;;;;;16.10;11.73;;;3.60;99.90;;;;;;5078177;28;20047;-38
2023/04/15 04:59:09;;;;;;;15.45;11.70;;;3.60;99.90;;;;;;5078517;28;20044;-39
2023/04/15 05:01:36;;;;;;;19.13;11.80;;;3.80;99.90;;;;;;5062117;28;20044;-37
2023/04/15 05:04:03;;;;;;;16.75;12.10;;;3.70;99.90;;;;;;5079189;28;20044;-38
2023/04/15 05:06:30;;;;;;;16.08;11.40;;;3.60;99.90;;;;;;5078949;28;20066;-38
2023/04/15 05:08:56;;;;;;;17.55;12.35;;;3.70;99.90;;;;;;5066554;28;20037;-35
2023/04/15 05:11:22;;;;;;;18.10;11.63;;;3.70;99.90;;;;;;5067381;28;20169;-37
2023/04/15 05:13:49;;;;;;;15.32;11.85;;;3.60;99.90;;;;;;5054962;28;20047;-37
2023/04/15 05:16:18;;;;;;;15.93;12.27;;;3.80;99.90;;;;;;5042405;28;20393;-37
2023/04/15 05:18:44;;;;;;;15.90;10.88;;;3.70;99.90;;;;;;5077519;28;20044;-37
2023/04/15 05:21:10;;;;;;;16.90;12.30;;;3.70;99.90;;;;;;5076672;28;20055;-37
2023/04/15 05:23:37;;;;;;;16.73;11.40;;;3.80;99.90;;;;;;5060519;28;20059;-37
2023/04/15 05:26:03;;;;;;;18.13;12.02;;;3.80;99.90;;;;;;5073973;28;20046;-36
2023/04/15 05:28:30;;;;;;;18.88;13.30;;;4.00;99.90;;;;;;5076144;28;20044;-37
2023/04/15 05:30:56;;;;;;;18.10;11.98;;;4.00;99.90;;;;;;5070882;28;20040;-36
2023/04/15 05:33:22;;;;;;;15.63;11.55;;;4.00;99.90;;;;;;5086410;28;20075;-40
2023/04/15 05:35:49;;;;;;;19.85;13.30;;;4.00;99.90;;;;;;5077623;28;20485;-37
2023/04/15 05:38:15;;;;;;;18.50;12.80;;;4.00;99.90;;;;;;5077489;28;20044;-39
2023/04/15 05:40:41;;;;;;;17.63;12.75;;;4.20;99.90;;;;;;5057444;28;20048;-38
2023/04/15 05:43:07;;;;;;;19.95;14.55;;;4.20;99.90;;;;;;5057543;28;20127;-39
2023/04/15 05:45:33;;;;;;;19.25;12.93;;;4.30;99.90;;;;;;5061600;28;20036;-39
2023/04/15 05:47:58;;;;;;;17.83;12.40;;;4.30;99.90;;;;;;5065923;28;20101;-37
2023/04/15 05:50:24;;;;;;;21.67;13.63;;;4.40;99.90;;;;;;5069199;28;20040;-40
2023/04/15 05:52:51;;;;;;;16.38;12.55;;;4.40;99.90;;;;;;5070468;28;20036;-39
2023/04/15 05:55:17;;;;;;;20.33;13.10;;;4.50;99.90;;;;;;5060919;28;20037;-37
2023/04/15 05:57:42;;;;;;;19.88;13.60;;;4.40;99.90;;;;;;5071502;28;20061;-38
2023/04/15 06:00:09;;;;;;;19.88;13.98;;;4.50;99.90;;;;;;5073753;28;20044;-37
2023/04/15 06:02:35;;;;;;;19.17;12.90;;;4.80;99.90;;;;;;5057028;28;20044;-37
2023/04/15 06:05:01;;;;;;;21.58;13.75;;;4.50;99.90;;;;;;5070789;28;20032;-38
2023/04/15 06:07:26;;;;;;;24.95;17.10;;;4.70;99.90;;;;;;5075210;28;20093;-39
2023/04/15 06:09:52;;;;;;;22.27;14.90;;;4.90;99.90;;;;;;5062993;28;20119;-38
2023/04/15 06:12:18;;;;;;;24.17;16.70;;;5.20;99.90;;;;;;5094040;28;20127;-37
2023/04/15 06:14:44;;;;;;;20.63;15.48;;;5.20;99.90;;;;;;5095273;28;20392;-40
2023/04/15 06:17:10;;;;;;;23.33;16.58;;;5.40;99.90;;;;;;5075901;28;20035;-38
2023/04/15 06:19:36;;;;;;;20.98;15.20;;;5.40;99.90;;;;;;5070580;28;20048;-39
2023/04/15 06:22:02;;;;;;;25.98;18.42;;;5.50;99.90;;;;;;5077084;28;20051;-39
2023/04/15 06:24:28;;;;;;;22.70;17.55;;;5.70;99.90;;;;;;5069733;28;20259;-38
2023/04/15 06:26:54;;;;;;;23.60;18.75;;;5.80;99.90;;;;;;5088333;28;20120;-37
2023/04/15 06:29:20;;;;;;;21.67;16.67;;;6.10;99.90;;;;;;5060856;28;20468;-37
2023/04/15 06:31:50;;;;;;;24.55;18.20;;;6.10;99.90;;;;;;5052355;28;20039;-38
2023/04/15 06:34:15;;;;;;;20.73;16.80;;;6.60;99.90;;;;;;5065121;28;20388;-38
2023/04/15 06:36:44;;;;;;;21.42;16.73;;;6.40;99.90;;;;;;5048951;28;20111;-38
2023/04/15 06:39:14;;;;;;;20.50;15.48;;;6.60;99.90;;;;;;5077418;28;20087;-37
2023/04/15 06:41:40;;;;;;;19.65;15.18;;;6.80;99.90;;;;;;5044609;28;20045;-39
2023/04/15 06:44:07;;;;;;;21.85;14.35;;;6.80;99.90;;;;;;5056878;28;20043;-37
2023/04/15 06:46:34;;;;;;;18.48;13.60;;;6.90;99.90;;;;;;5074698;28;20497;-37
2023/04/15 06:49:00;;;;;;;17.83;12.85;;;7.00;99.90;;;;;;5056592;28;20044;-39
2023/04/15 06:51:26;;;;;;;18.60;13.13;;;7.10;99.90;;;;;;5070686;28;20036;-36
2023/04/15 06:53:52;;;;;;;18.58;13.73;;;7.30;99.90;;;;;;5076460;28;20046;-38
2023/04/15 06:56:18;;;;;;;19.25;13.13;;;7.30;99.90;;;;;;5094075;28;20118;-38
2023/04/15 06:58:43;;;;;;;19.48;14.43;;;7.40;99.90;;;;;;5068462;28;20119;-38
2023/04/15 07:01:10;;;;;;;20.70;15.60;;;7.40;99.90;;;;;;5072733;28;20048;-36
2023/04/15 07:03:36;;;;;;;19.77;16.27;;;7.60;99.90;;;;;;5076089;28;20040;-37
2023/04/15 07:06:05;;;;;;;18.65;14.55;;;7.60;99.90;;;;;;5093476;28;20040;-38
2023/04/15 07:08:32;;;;;;;19.05;14.10;;;7.70;99.90;;;;;;5075857;28;20051;-39
2023/04/15 07:10:59;;;;;;;17.88;13.43;;;7.80;99.90;;;;;;5076305;28;20044;-38
2023/04/15 07:13:25;;;;;;;16.67;13.30;;;7.90;99.90;;;;;;5076070;28;20071;-37
2023/04/15 07:15:51;;;;;;;19.80;13.60;;;8.00;99.90;;;;;;5091548;28;20035;-38
2023/04/15 07:18:17;;;;;;;17.83;12.75;;;8.00;99.90;;;;;;5093796;28;20505;-34
2023/04/15 07:20:43;;;;;;;20.52;13.85;;;8.00;99.90;;;;;;5059608;28;20486;-35
2023/04/15 07:23:08;;;;;;;15.75;12.52;;;8.20;99.90;;;;;;5066016;28;20785;-36
2023/04/15 07:25:35;;;;;;;17.40;12.60;;;8.30;99.90;;;;;;5071248;28;20504;-37
2023/04/15 07:28:03;;;;;;;15.48;12.23;;;8.30;99.90;;;;;;5067896;28;20075;-35
2023/04/15 07:30:29;;;;;;;15.02;11.43;;;8.40;99.90;;;;;;5075933;28;20040;-35
2023/04/15 07:32:55;;;;;;;17.45;11.85;;;8.50;99.90;;;;;;5057297;28;20040;-36
2023/04/15 07:35:21;;;;;;;16.02;11.75;;;8.50;99.90;;;;;;5082719;28;20039;-34
2023/04/15 07:37:47;;;;;;;15.73;11.13;;;8.70;99.90;;;;;;5073853;28;20396;-37
2023/04/15 07:40:15;;;;;;;15.55;11.43;;;8.90;99.90;;;;;;5076214;28;20044;-35
2023/04/15 07:42:42;;;;;;;15.02;11.20;;;8.90;99.90;;;;;;5075332;28;20499;-35
2023/04/15 07:45:09;;;;;;;16.35;11.25;;;9.00;99.90;;;;;;5075172;28;20032;-36
2023/04/15 07:47:35;;;;;;;13.40;10.50;;;9.10;99.90;;;;;;5077819;22;20150;-41
2023/04/15 07:50:02;;;;;;;15.82;10.93;;;9.20;99.90;;;;;;5130440;27;20058;-43
2023/04/15 07:52:27;;;;;;;13.25;10.75;;;9.30;99.90;;;;;;5131534;27;20031;-42
2023/04/15 07:54:55;;;;;;;16.17;10.82;;;9.40;99.90;;;;;;5127080;27;20035;-43
2023/04/15 07:57:21;;;;;;;14.63;10.48;;;9.50;99.90;;;;;;5126526;27;20028;-42
2023/04/15 07:59:47;;;;;;;16.98;11.35;;;9.50;99.90;;;;;;5128737;27;20430;-42
2023/04/15 08:02:13;;;;;;;14.65;10.95;;;9.60;99.90;;;;;;5126634;22;20123;-80
2023/04/15 08:04:39;;;;;;;13.63;10.77;;;9.80;99.90;;;;;;5066471;28;20051;-80
2023/04/15 08:07:05;;;;;;;14.13;10.20;;;9.80;99.90;;;;;;5033235;28;20429;-81
2023/04/15 08:09:30;;;;;;;12.68;10.15;;;9.90;99.90;;;;;;5034658;28;20029;-80
2023/04/15 08:11:56;;;;;;;15.55;11.18;;;10.70;99.90;;;;;;5042266;28;20501;-81
2023/04/15 08:14:23;;;;;;;14.43;10.18;;;10.10;99.90;;;;;;5030848;28;20036;-80
2023/04/15 08:16:49;;;;;;;12.75;9.77;;;10.30;99.90;;;;;;5024759;28;20060;-80
2023/04/15 08:19:15;;;;;;;13.60;9.85;;;10.60;99.90;;;;;;5027379;28;21319;-81
2023/04/15 08:21:40;;;;;;;14.50;10.50;;;10.60;99.90;;;;;;5048569;28;20048;-81
2023/04/15 08:24:06;;;;;;;13.43;10.48;;;10.60;99.90;;;;;;5040828;28;20045;-81
2023/04/15 08:26:32;;;;;;;13.90;8.90;;;10.80;99.90;;;;;;5036102;28;20051;-81
2023/04/15 08:28:58;;;;;;;12.63;8.75;;;11.00;99.90;;;;;;5033818;28;20097;-81
2023/04/15 08:31:27;;;;;;;12.52;9.27;;;10.90;99.90;;;;;;5025886;28;20025;-81
2023/04/15 08:33:53;;;;;;;11.25;8.27;;;11.00;99.90;;;;;;5023024;28;20037;-81
2023/04/15 08:36:19;;;;;;;11.07;8.60;;;10.80;99.90;;;;;;5040657;28;20041;-81
2023/04/15 08:38:45;;;;;;;12.00;7.65;;;11.10;99.90;;;;;;5029245;28;20032;-81
2023/04/15 08:41:26;;;;;;;10.82;8.38;;;11.00;99.90;;;;;;5050171;28;20038;-81
2023/04/15 08:44:03;;;;;;;8.82;7.18;;;12.10;99.90;;;;;;5043368;28;20034;-81
2023/04/15 08:46:31;;;;;;;10.38;7.70;;;11.00;99.90;;;;;;5023598;28;20033;-81
2023/04/15 08:48:57;;;;;;;9.50;7.15;;;11.10;99.90;;;;;;5037967;28;20092;-81
2023/04/15 08:51:23;;;;;;;8.48;6.20;;;11.10;99.90;;;;;;5045034;28;20037;-81
2023/04/15 08:53:49;;;;;;;9.05;6.05;;;10.90;99.90;;;;;;5027625;28;20403;-81
2023/04/15 08:56:16;;;;;;;8.07;5.70;;;11.20;99.90;;;;;;5042369;28;20040;-81
2023/04/15 08:58:46;;;;;;;6.15;5.55;;;11.60;99.90;;;;;;5035469;28;20049;-81
2023/04/15 09:01:12;;;;;;;10.50;5.28;;;10.60;99.90;;;;;;5032607;28;20037;-81
2023/04/15 09:03:39;;;;;;;7.80;5.30;;;10.60;99.90;;;;;;5032483;28;20033;-81
2023/04/15 09:06:05;;;;;;;7.82;5.03;;;11.00;99.90;;;;;;5030511;28;20650;-80
2023/04/15 09:08:33;;;;;;;8.35;5.20;;;10.50;99.90;;;;;;5045222;28;20097;-81
2023/04/15 09:10:59;;;;;;;8.05;4.20;;;10.30;99.90;;;;;;5042611;28;20041;-80
2023/04/15 09:13:25;;;;;;;7.18;4.30;;;10.30;99.90;;;;;;5034606;28;20532;-80
2023/04/15 09:15:52;;;;;;;6.28;3.75;;;10.00;99.90;;;;;;5031672;28;20050;-80
2023/04/15 09:18:30;;;;;;;9.20;4.10;;;10.10;99.90;;;;;;5025263;28;20048;-80
2023/04/15 09:21:07;;;;;;;7.65;4.30;;;10.30;99.90;;;;;;5027822;28;20045;-81
2023/04/15 09:23:34;;;;;;;4.28;3.60;;;10.20;99.90;;;;;;5049544;28;20056;-80
2023/04/15 09:26:04;;;;;;;6.15;3.90;;;10.90;99.90;;;;;;5031574;28;20044;-81
2023/04/15 09:28:30;;;;;;;5.75;3.90;;;10.10;99.90;;;;;;5046859;28;20037;-81
2023/04/15 09:30:57;;;;;;;5.50;3.90;;;10.10;99.90;;;;;;5049142;28;20033;-81
2023/04/15 09:33:25;;;;;;;5.18;3.72;;;9.80;99.90;;;;;;5031530;28;20041;-81
2023/04/15 09:36:04;;;;;;;5.03;4.00;;;10.80;99.90;;;;;;5034334;28;20559;-82
2023/04/15 09:38:31;;;;;;;7.07;3.83;;;10.30;99.90;;;;;;5063077;28;20386;-82
2023/04/15 09:40:57;;;;;;;6.00;3.65;;;10.30;99.90;;;;;;5052392;28;20052;-81
2023/04/15 09:43:39;;;;;;;4.25;3.47;;;10.50;99.90;;;;;;5049805;28;20036;-81
2023/04/15 09:46:05;;;;;;;4.38;3.08;;;10.50;99.90;;;;;;5040675;28;20055;-82
2023/04/15 09:48:31;;;;;;;4.50;3.53;;;10.60;99.90;;;;;;5041513;28;20033;-81
2023/04/15 09:50:59;;;;;;;6.30;3.22;;;11.30;99.90;;;;;;5056881;28;20061;-80
2023/04/15 09:53:28;;;;;;;3.47;2.90;;;10.50;99.90;;;;;;5057983;28;20049;-79
2023/04/15 09:55:56;;;;;;;3.90;2.80;;;10.70;99.90;;;;;;5057773;28;20041;-80
2023/04/15 09:58:25;;;;;;;2.95;2.75;;;10.70;99.90;;;;;;5054669;28;20464;-82
2023/04/15 10:00:53;;;;;;;5.30;3.22;;;10.80;99.90;;;;;;5036754;28;20040;-82
2023/04/15 10:03:21;;;;;;;2.40;2.20;;;10.80;99.90;;;;;;5059095;28;20064;-81
2023/04/15 10:05:48;;;;;;;2.88;2.60;;;10.80;99.90;;;;;;5057097;28;20040;-82
2023/04/15 10:08:20;;;;;;;3.25;2.47;;;10.90;99.90;;;;;;5056308;28;20068;-81
2023/04/15 10:10:47;;;;;;;3.17;2.88;;;10.80;99.90;;;;;;5058398;28;20048;-83
2023/04/15 10:13:19;;;;;;;3.75;2.55;;;10.90;99.90;;;;;;5042007;28;20171;-84
2023/04/15 10:15:50;;;;;;;6.70;2.83;;;11.30;99.90;;;;;;5054539;28;20116;-84
2023/04/15 10:18:19;;;;;;;34.50;26.83;;;10.90;99.90;;;;;;5059237;28;20104;-83
2023/04/15 10:20:48;;;;;;;3.40;3.08;;;11.00;99.90;;;;;;5037626;28;20042;-82
2023/04/15 10:23:15;;;;;;;3.85;2.42;;;10.90;99.90;;;;;;5042029;28;20041;-81
2023/04/15 10:25:41;;;;;;;4.63;2.85;;;10.80;99.90;;;;;;5060690;28;20044;-83
2023/04/15 10:28:07;;;;;;;3.85;2.72;;;10.80;99.90;;;;;;5048090;28;20033;-84
2023/04/15 10:30:33;;;;;;;5.07;3.35;;;10.90;99.90;;;;;;5056470;28;20068;-81
2023/04/15 10:33:04;;;;;;;3.58;2.28;;;10.70;99.90;;;;;;5051594;28;20057;-81
2023/04/15 10:35:32;;;;;;;3.17;2.28;;;10.90;99.90;;;;;;5055424;28;20512;-82
2023/04/15 10:37:58;;;;;;;3.45;2.28;;;11.10;99.90;;;;;;5059717;28;20066;-83
2023/04/15 10:40:30;;;;;;;2.90;2.53;;;11.10;99.90;;;;;;5055192;28;20064;-82
2023/04/15 10:43:02;;;;;;;2.38;2.17;;;11.10;99.90;;;;;;5064674;28;20017;-82
2023/04/15 10:45:33;;;;;;;2.60;2.10;;;11.10;99.90;;;;;;5072307;28;20047;-81
2023/04/15 10:48:02;;;;;;;3.15;2.50;;;11.10;99.90;;;;;;5066577;28;20052;-82
2023/04/15 10:50:29;;;;;;;3.13;2.42;;;11.30;99.90;;;;;;5050713;28;20061;-82
2023/04/15 10:52:55;;;;;;;4.47;2.47;;;11.00;99.90;;;;;;5028615;28;20064;-82
2023/04/15 10:55:32;;;;;;;4.28;3.28;;;10.90;99.90;;;;;;5030720;28;20029;-82
2023/04/15 10:58:00;;;;;;;5.72;3.30;;;11.00;99.90;;;;;;5033619;28;20033;-83
2023/04/15 11:00:28;;;;;;;5.05;4.10;;;11.10;99.90;;;;;;5034129;28;20065;-83
2023/04/15 11:02:55;;;;;;;5.80;3.40;;;11.00;99.90;;;;;;5033712;28;20045;-84
2023/04/15 11:05:40;;;;;;;3.58;2.60;;;11.70;99.90;;;;;;5034031;28;20552;-84
2023/04/15 11:08:07;;;;;;;4.88;2.80;;;11.10;99.90;;;;;;5028602;28;20041;-82
2023/04/15 11:10:33;;;;;;;6.82;2.50;;;11.30;99.90;;;;;;5045527;28;20103;-84
2023/04/15 11:13:01;;;;;;;4.03;2.30;;;11.10;99.90;;;;;;5046848;28;20040;-82
2023/04/15 11:15:40;;;;;;;3.38;2.80;;;11.30;99.90;;;;;;5037080;28;20063;-82
2023/04/15 11:18:24;;;;;;;4.38;2.53;;;11.10;99.90;;;;;;5052469;28;20090;-84
2023/04/15 11:20:58;;;;;;;6.45;2.75;;;11.10;99.90;;;;;;5059188;28;20045;-83
2023/04/15 11:23:26;;;;;;;;;;;10.90;99.90;;;;;;5051182;28;20033;-81
2023/04/15 11:25:56;;;;;;;4.88;2.70;;;11.10;99.90;;;;;;5037159;28;19927;-81
2023/04/15 11:28:28;;;;;;;3.28;2.50;;;11.30;99.90;;;;;;5047540;28;20409;-82
2023/04/15 11:30:55;;;;;;;5.63;3.00;;;11.10;99.90;;;;;;5047939;28;20044;-81
2023/04/15 11:33:21;;;;;;;7.85;3.90;;;11.50;99.90;;;;;;5044748;28;20150;-81
2023/04/15 11:35:47;;;;;;;5.57;2.53;;;11.20;99.90;;;;;;5030525;28;20033;-82
2023/04/15 11:38:34;;;;;;;4.45;2.50;;;11.20;99.90;;;;;;5043107;28;20045;-83
2023/04/15 11:40:59;;;;;;;5.35;2.63;;;11.90;99.90;;;;;;5028462;28;20040;-85
2023/04/15 11:43:25;;;;;;;5.43;2.58;;;11.90;99.90;;;;;;5025538;28;20033;-85
2023/04/15 11:46:02;;;;;;;2.97;2.22;;;11.00;99.90;;;;;;5043309;28;20410;-85
2023/04/15 11:48:30;;;;;;;5.20;2.10;;;11.50;99.90;;;;;;5041470;28;20033;-84
2023/04/15 11:51:00;;;;;;;2.88;2.35;;;12.00;99.90;;;;;;5049791;28;20116;-82
2023/04/15 11:53:38;;;;;;;3.90;2.33;;;11.90;99.90;;;;;;5025798;28;20056;-83
2023/04/15 11:56:04;;;;;;;4.75;2.47;;;11.90;99.90;;;;;;5041800;28;20073;-82
2023/04/15 11:58:30;;;;;;;2.63;2.35;;;11.80;99.90;;;;;;5048886;28;20379;-82
2023/04/15 12:00:57;;;;;;;3.30;2.30;;;11.80;99.90;;;;;;5031903;28;20041;-83
2023/04/15 12:03:26;;;;;;;3.97;2.60;;;11.60;99.90;;;;;;5040324;28;20052;-82
2023/04/15 12:06:05;;;;;;;5.60;2.83;;;11.50;99.90;;;;;;5035402;28;20124;-83
2023/04/15 12:08:59;;;;;;;4.85;3.00;;;11.50;99.90;;;;;;5033413;28;20433;-82
2023/04/15 12:11:42;;;;;;;8.40;2.90;;;11.40;99.90;;;;;;5048801;28;20033;-83
2023/04/15 12:14:17;;;;;;;7.15;3.72;;;11.30;99.90;;;;;;5042280;28;20041;-82
2023/04/15 12:16:48;;;;;;;9.65;3.10;;;11.60;99.90;;;;;;5026496;28;20048;-82
2023/04/15 12:19:15;;;;;;;3.10;2.80;;;11.00;99.90;;;;;;5035375;28;20033;-81
2023/04/15 12:21:44;;;;;;;5.03;3.28;;;11.10;99.90;;;;;;5022302;28;20143;-82
2023/04/15 12:24:11;;;;;;;5.15;2.90;;;11.20;99.90;;;;;;5025151;28;20139;-82
2023/04/15 12:26:47;;;;;;;8.20;3.70;;;11.20;99.90;;;;;;5023419;28;20052;-82
2023/04/15 12:29:14;;;;;;;7.47;3.60;;;11.30;99.90;;;;;;5044808;28;20116;-82
2023/04/15 12:32:04;;;;;;;5.97;3.47;;;11.20;99.90;;;;;;5035971;28;20041;-81
2023/04/15 12:34:31;;;;;;;4.03;3.28;;;11.30;99.90;;;;;;5023045;28;20040;-81
2023/04/15 12:36:59;;;;;;;4.40;2.90;;;11.30;99.90;;;;;;5034499;28;20033;-81
2023/04/15 12:39:27;;;;;;;3.78;2.58;;;11.50;99.90;;;;;;5021119;28;20097;-81
2023/04/15 12:41:53;;;;;;;4.85;2.25;;;11.40;99.90;;;;;;5023471;28;20138;-81
2023/04/15 12:44:21;;;;;;;4.43;2.80;;;11.50;99.90;;;;;;5030479;28;20041;-81
2023/04/15 12:46:47;;;;;;;4.82;2.53;;;11.60;99.90;;;;;;5047792;28;20094;-81